Wetterdaten: Woche 10.09.12 - 16.09.12 (KW37)
Datum Zeit Temp. Innen Temp. Aussen UV X Diff Temp. Feuchte Inne Feuchte Auss Sonnenschein Luftdruck Regen ab 0,1 Wind Sonnenschein T Regendauer Windben
10.09.2012 00:00 24,5 C 18,2 C 0,0 UV-I 0,0 C 49 % 66 % 0 % 1011,8 hPa 0,0 l/m 1,1 km/h (0 Bft) 0,00 h 0,00 h 2,7 km/h (1 Bft)
10.09.2012 01:00 24,3 C 17,7 C 0,0 UV-I 0,0 C 49 % 68 % 0 % 1011,5 hPa 0,0 l/m 2,1 km/h (1 Bft) 0,00 h 0,00 h 3,1 km/h (1 Bft)
10.09.2012 02:00 24,2 C 16,8 C 0,0 UV-I 0,0 C 49 % 71 % 0 % 1011,6 hPa 0,0 l/m 4,6 km/h (1 Bft) 0,00 h 0,00 h 6,8 km/h (2 Bft)
10.09.2012 03:00 24,0 C 16,2 C 0,0 UV-I 0,0 C 49 % 73 % 0 % 1011,7 hPa 0,0 l/m 2,3 km/h (1 Bft) 0,00 h 0,00 h 3,2 km/h (1 Bft)
10.09.2012 04:00 23,8 C 15,2 C 0,0 UV-I 0,0 C 50 % 76 % 0 % 1012,2 hPa 0,0 l/m 0,1 km/h (0 Bft) 0,00 h 0,00 h 0,3 km/h (0 Bft)
10.09.2012 05:00 23,6 C 14,6 C 0,0 UV-I 0,0 C 50 % 79 % 0 % 1012,2 hPa 0,0 l/m 0,6 km/h (0 Bft) 0,00 h 0,00 h 1,1 km/h (0 Bft)
10.09.2012 06:00 23,4 C 14,3 C 0,0 UV-I 0,0 C 51 % 82 % 0 % 1012,3 hPa 0,0 l/m 0,0 km/h (0 Bft) 0,00 h 0,00 h 0,3 km/h (0 Bft)
10.09.2012 07:00 23,3 C 15,5 C 0,0 UV-I 0,0 C 50 % 80 % 0 % 1012,7 hPa 0,0 l/m 0,7 km/h (0 Bft) 0,00 h 0,00 h 1,5 km/h (1 Bft)
10.09.2012 08:00 23,4 C 16,5 C 0,0 UV-I 0,1 C 50 % 78 % 3 % 1013,4 hPa 0,0 l/m 1,0 km/h (0 Bft) 0,00 h 0,00 h 2,1 km/h (1 Bft)
10.09.2012 09:00 23,5 C 17,6 C 0,5 UV-I 3,4 C 52 % 79 % 74 % 1013,8 hPa 0,0 l/m 0,8 km/h (0 Bft) 0,57 h 0,00 h 1,8 km/h (1 Bft)
10.09.2012 10:00 23,7 C 20,1 C 1,7 UV-I 7,6 C 54 % 78 % 100 % 1014,0 hPa 0,0 l/m 2,8 km/h (1 Bft) 1,00 h 0,00 h 5,1 km/h (1 Bft)
10.09.2012 11:00 24,0 C 22,2 C 2,9 UV-I 7,5 C 56 % 73 % 100 % 1014,0 hPa 0,0 l/m 2,3 km/h (1 Bft) 1,00 h 0,00 h 4,2 km/h (1 Bft)
10.09.2012 12:00 24,5 C 22,9 C 1,6 UV-I 4,1 C 55 % 69 % 100 % 1013,7 hPa 0,0 l/m 2,6 km/h (1 Bft) 1,00 h 0,00 h 4,5 km/h (1 Bft)
10.09.2012 13:00 25,0 C 23,9 C 2,8 UV-I 4,8 C 54 % 64 % 97 % 1013,6 hPa 0,0 l/m 4,0 km/h (1 Bft) 0,90 h 0,00 h 6,8 km/h (2 Bft)
10.09.2012 14:00 26,1 C 26,0 C 3,9 UV-I 6,1 C 52 % 57 % 100 % 1014,6 hPa 0,0 l/m 5,5 km/h (1 Bft) 1,00 h 0,00 h 8,8 km/h (2 Bft)
10.09.2012 15:00 27,5 C 27,4 C 3,9 UV-I 5,3 C 47 % 50 % 100 % 1012,7 hPa 0,0 l/m 6,1 km/h (2 Bft) 1,00 h 0,00 h 9,1 km/h (2 Bft)
10.09.2012 16:00 28,5 C 27,9 C 3,1 UV-I 4,4 C 43 % 47 % 100 % 1011,9 hPa 0,0 l/m 6,0 km/h (2 Bft) 1,00 h 0,00 h 9,2 km/h (2 Bft)
10.09.2012 17:00 28,1 C 27,9 C 1,2 UV-I 3,1 C 43 % 48 % 76 % 1011,7 hPa 0,0 l/m 4,5 km/h (1 Bft) 0,50 h 0,00 h 5,3 km/h (1 Bft)
10.09.2012 18:00 27,1 C 26,7 C 0,3 UV-I 0,4 C 46 % 53 % 12 % 1012,0 hPa 0,0 l/m 0,7 km/h (0 Bft) 0,00 h 0,00 h 0,9 km/h (0 Bft)
10.09.2012 19:00 26,5 C 25,1 C 0,0 UV-I 0,0 C 48 % 59 % 0 % 1012,1 hPa 0,0 l/m 0,0 km/h (0 Bft) 0,00 h 0,00 h 0,0 km/h (0 Bft)
10.09.2012 20:00 26,0 C 23,3 C 0,0 UV-I 0,0 C 51 % 66 % 0 % 1012,3 hPa 0,0 l/m 0,0 km/h (0 Bft) 0,00 h 0,00 h 0,0 km/h (0 Bft)
10.09.2012 21:00 25,7 C 22,1 C 0,0 UV-I 0,0 C 54 % 71 % 0 % 1012,6 hPa 0,0 l/m 0,0 km/h (0 Bft) 0,00 h 0,00 h 0,0 km/h (0 Bft)
10.09.2012 22:00 25,4 C 22,1 C 0,0 UV-I 0,0 C 53 % 68 % 0 % 1012,7 hPa 0,0 l/m 0,0 km/h (0 Bft) 0,00 h 0,00 h 0,0 km/h (0 Bft)
10.09.2012 23:00 25,3 C 21,3 C 0,0 UV-I 0,0 C 54 % 70 % 0 % 1012,7 hPa 0,0 l/m 0,0 km/h (0 Bft) 0,00 h 0,00 h 0,0 km/h (0 Bft)
11.09.2012 00:00 25,2 C 20,5 C 0,0 UV-I 0,0 C 55 % 74 % 0 % 1012,2 hPa 0,0 l/m 0,3 km/h (0 Bft) 0,00 h 0,00 h 1,0 km/h (0 Bft)
11.09.2012 01:00 25,0 C 19,7 C 0,0 UV-I 0,0 C 56 % 77 % 0 % 1011,9 hPa 0,0 l/m 0,5 km/h (0 Bft) 0,00 h 0,00 h 1,0 km/h (0 Bft)
11.09.2012 02:00 24,8 C 19,1 C 0,0 UV-I 0,0 C 56 % 79 % 0 % 1011,8 hPa 0,0 l/m 0,3 km/h (0 Bft) 0,00 h 0,00 h 0,6 km/h (0 Bft)
11.09.2012 03:00 24,7 C 19,5 C 0,0 UV-I 0,0 C 56 % 78 % 0 % 1011,6 hPa 0,0 l/m 0,8 km/h (0 Bft) 0,00 h 0,00 h 2,0 km/h (1 Bft)
11.09.2012 04:00 24,6 C 20,6 C 0,0 UV-I 0,0 C 55 % 73 % 0 % 1011,3 hPa 0,0 l/m 1,1 km/h (0 Bft) 0,00 h 0,07 h 2,2 km/h (1 Bft)
11.09.2012 05:00 24,6 C 20,3 C 0,0 UV-I 0,0 C 55 % 74 % 0 % 1011,1 hPa 0,0 l/m 2,1 km/h (1 Bft) 0,00 h 0,27 h 4,6 km/h (1 Bft)
11.09.2012 06:00 24,4 C 19,0 C 0,0 UV-I 0,0 C 58 % 82 % 0 % 1011,0 hPa 0,1 l/m 2,5 km/h (1 Bft) 0,00 h 0,57 h 3,5 km/h (1 Bft)
11.09.2012 07:00 24,2 C 18,1 C 0,0 UV-I 0,0 C 60 % 89 % 0 % 1011,3 hPa 1,6 l/m 1,4 km/h (1 Bft) 0,00 h 0,40 h 2,7 km/h (1 Bft)
11.09.2012 08:00 24,1 C 17,9 C 0,0 UV-I 0,0 C 62 % 92 % 0 % 1010,9 hPa 0,5 l/m 2,3 km/h (1 Bft) 0,00 h 0,47 h 5,1 km/h (1 Bft)
11.09.2012 09:00 24,0 C 18,2 C 0,4 UV-I 1,2 C 63 % 93 % 32 % 1010,8 hPa 0,0 l/m 3,0 km/h (1 Bft) 0,27 h 0,00 h 5,6 km/h (1 Bft)
11.09.2012 10:00 24,3 C 19,6 C 0,6 UV-I 2,3 C 63 % 91 % 65 % 1010,7 hPa 0,0 l/m 2,9 km/h (1 Bft) 0,10 h 0,00 h 6,2 km/h (2 Bft)
11.09.2012 11:00 24,4 C 20,1 C 0,6 UV-I 1,7 C 62 % 88 % 49 % 1010,9 hPa 0,0 l/m 3,1 km/h (1 Bft) 0,00 h 0,00 h 4,8 km/h (1 Bft)
11.09.2012 12:00 24,5 C 20,4 C 0,5 UV-I 1,1 C 61 % 85 % 30 % 1010,3 hPa 0,0 l/m 3,0 km/h (1 Bft) 0,00 h 0,07 h 3,6 km/h (1 Bft)
11.09.2012 13:00 24,4 C 20,3 C 0,6 UV-I 0,7 C 61 % 82 % 21 % 1009,8 hPa 0,0 l/m 6,0 km/h (2 Bft) 0,00 h 0,37 h 9,1 km/h (2 Bft)
11.09.2012 14:00 24,2 C 18,9 C 0,2 UV-I 0,1 C 61 % 87 % 2 % 1010,2 hPa 2,1 l/m 7,8 km/h (2 Bft) 0,00 h 0,67 h 11,3 km/h (2 Bft)
11.09.2012 15:00 23,8 C 15,9 C 0,1 UV-I 0,0 C 61 % 91 % 0 % 1011,1 hPa 1,9 l/m 6,5 km/h (2 Bft) 0,00 h 0,67 h 10,3 km/h (2 Bft)
11.09.2012 16:00 23,6 C 15,5 C 0,1 UV-I 0,0 C 61 % 94 % 1 % 1011,2 hPa 1,0 l/m 1,7 km/h (1 Bft) 0,00 h 0,40 h 3,5 km/h (1 Bft)
11.09.2012 17:00 23,3 C 15,7 C 0,1 UV-I 0,0 C 61 % 96 % 0 % 1011,5 hPa 0,0 l/m 1,5 km/h (1 Bft) 0,00 h 0,00 h 1,8 km/h (1 Bft)
11.09.2012 18:00 23,2 C 15,7 C 0,0 UV-I 0,0 C 60 % 96 % 0 % 1011,4 hPa 0,0 l/m 1,9 km/h (1 Bft) 0,00 h 0,27 h 2,6 km/h (1 Bft)
11.09.2012 19:00 23,2 C 15,6 C 0,0 UV-I 0,0 C 61 % 96 % 0 % 1011,9 hPa 0,1 l/m 0,9 km/h (0 Bft) 0,00 h 0,07 h 0,8 km/h (0 Bft)
11.09.2012 20:00 23,0 C 14,6 C 0,0 UV-I 0,0 C 60 % 95 % 0 % 1012,4 hPa 0,0 l/m 0,2 km/h (0 Bft) 0,00 h 0,00 h 0,4 km/h (0 Bft)
11.09.2012 21:00 22,6 C 13,3 C 0,0 UV-I 0,0 C 59 % 95 % 0 % 1012,8 hPa 0,0 l/m 0,0 km/h (0 Bft) 0,00 h 0,00 h 0,0 km/h (0 Bft)
11.09.2012 22:00 22,2 C 12,3 C 0,0 UV-I 0,0 C 57 % 95 % 0 % 1013,0 hPa 0,0 l/m 0,0 km/h (0 Bft) 0,00 h 0,00 h 0,0 km/h (0 Bft)
11.09.2012 23:00 21,7 C 11,7 C 0,0 UV-I 0,0 C 55 % 95 % 0 % 1013,1 hPa 0,0 l/m 0,0 km/h (0 Bft) 0,00 h 0,00 h 0,0 km/h (0 Bft)
12.09.2012 00:00 21,3 C 11,4 C 0,0 UV-I 0,0 C 56 % 96 % 0 % 1013,1 hPa 0,0 l/m 0,0 km/h (0 Bft) 0,00 h 0,00 h 0,0 km/h (0 Bft)
12.09.2012 01:00 21,0 C 11,2 C 0,0 UV-I 0,0 C 55 % 96 % 0 % 1013,3 hPa 0,0 l/m 0,0 km/h (0 Bft) 0,00 h 0,00 h 0,0 km/h (0 Bft)
12.09.2012 02:00 20,7 C 10,8 C 0,0 UV-I 0,0 C 55 % 96 % 0 % 1013,0 hPa 0,0 l/m 0,0 km/h (0 Bft) 0,00 h 0,00 h 0,0 km/h (0 Bft)
12.09.2012 03:00 20,5 C 10,7 C 0,0 UV-I 0,0 C 55 % 96 % 0 % 1012,7 hPa 0,0 l/m 0,0 km/h (0 Bft) 0,00 h 0,00 h 0,0 km/h (0 Bft)
12.09.2012 04:00 20,3 C 11,1 C 0,0 UV-I 0,0 C 55 % 97 % 0 % 1012,4 hPa 0,0 l/m 0,8 km/h (0 Bft) 0,00 h 0,00 h 2,6 km/h (1 Bft)
12.09.2012 05:00 20,2 C 11,6 C 0,0 UV-I 0,0 C 55 % 96 % 0 % 1012,4 hPa 0,0 l/m 0,9 km/h (0 Bft) 0,00 h 0,00 h 1,7 km/h (1 Bft)
12.09.2012 06:00 20,2 C 11,4 C 0,0 UV-I 0,0 C 56 % 95 % 0 % 1012,5 hPa 0,0 l/m 0,4 km/h (0 Bft) 0,00 h 0,00 h 0,5 km/h (0 Bft)
12.09.2012 07:00 20,2 C 11,1 C 0,0 UV-I 0,0 C 56 % 96 % 0 % 1013,0 hPa 0,0 l/m 0,6 km/h (0 Bft) 0,00 h 0,00 h 1,2 km/h (1 Bft)
12.09.2012 08:00 20,2 C 11,1 C 0,0 UV-I 0,2 C 55 % 96 % 6 % 1013,2 hPa 0,0 l/m 2,1 km/h (1 Bft) 0,00 h 0,00 h 4,2 km/h (1 Bft)
12.09.2012 09:00 20,3 C 11,2 C 0,0 UV-I 0,1 C 55 % 94 % 2 % 1013,5 hPa 0,9 l/m 2,3 km/h (1 Bft) 0,00 h 0,20 h 5,1 km/h (1 Bft)
12.09.2012 10:00 20,3 C 11,5 C 0,3 UV-I 0,6 C 55 % 95 % 16 % 1013,7 hPa 0,0 l/m 1,1 km/h (0 Bft) 0,00 h 0,00 h 2,3 km/h (1 Bft)
12.09.2012 11:00 20,6 C 12,6 C 1,3 UV-I 2,4 C 54 % 92 % 60 % 1013,8 hPa 0,0 l/m 4,0 km/h (1 Bft) 0,27 h 0,00 h 6,9 km/h (2 Bft)
12.09.2012 12:00 21,0 C 13,7 C 1,7 UV-I 3,7 C 54 % 86 % 75 % 1013,6 hPa 0,0 l/m 3,7 km/h (1 Bft) 0,47 h 0,13 h 6,3 km/h (2 Bft)
12.09.2012 13:00 21,7 C 15,7 C 3,6 UV-I 6,3 C 50 % 73 % 100 % 1013,2 hPa 0,0 l/m 4,6 km/h (1 Bft) 1,00 h 0,00 h 7,1 km/h (2 Bft)
12.09.2012 14:00 22,2 C 14,7 C 0,6 UV-I 1,5 C 46 % 69 % 41 % 1013,4 hPa 0,0 l/m 6,4 km/h (2 Bft) 0,20 h 0,00 h 9,3 km/h (2 Bft)
12.09.2012 15:00 22,1 C 14,3 C 0,8 UV-I 2,1 C 45 % 69 % 60 % 1013,0 hPa 0,0 l/m 3,4 km/h (1 Bft) 0,27 h 0,00 h 6,7 km/h (2 Bft)
12.09.2012 16:00 22,1 C 14,6 C 1,4 UV-I 2,4 C 45 % 70 % 59 % 1012,3 hPa 0,0 l/m 2,7 km/h (1 Bft) 0,23 h 0,00 h 5,1 km/h (1 Bft)
12.09.2012 17:00 22,8 C 15,2 C 0,8 UV-I 2,0 C 43 % 66 % 49 % 1012,1 hPa 0,0 l/m 5,1 km/h (1 Bft) 0,27 h 0,00 h 7,6 km/h (2 Bft)
12.09.2012 18:00 22,3 C 15,1 C 0,2 UV-I 1,0 C 43 % 69 % 28 % 1012,6 hPa 0,0 l/m 2,6 km/h (1 Bft) 0,10 h 0,00 h 4,2 km/h (1 Bft)
12.09.2012 19:00 21,8 C 14,6 C 0,0 UV-I 0,0 C 45 % 70 % 0 % 1012,7 hPa 0,0 l/m 0,3 km/h (0 Bft) 0,00 h 0,00 h 0,2 km/h (0 Bft)
12.09.2012 20:00 21,1 C 12,5 C 0,0 UV-I 0,0 C 47 % 76 % 0 % 1012,8 hPa 0,0 l/m 0,0 km/h (0 Bft) 0,00 h 0,00 h 0,0 km/h (0 Bft)
12.09.2012 21:00 20,5 C 11,0 C 0,0 UV-I 0,0 C 47 % 80 % 0 % 1012,9 hPa 0,0 l/m 0,0 km/h (0 Bft) 0,00 h 0,00 h 0,0 km/h (0 Bft)
12.09.2012 22:00 20,1 C 9,8 C 0,0 UV-I 0,0 C 48 % 84 % 0 % 1012,6 hPa 0,0 l/m 0,0 km/h (0 Bft) 0,00 h 0,00 h 0,0 km/h (0 Bft)
12.09.2012 23:00 19,8 C 9,2 C 0,0 UV-I 0,0 C 49 % 87 % 0 % 1012,3 hPa 0,0 l/m 0,2 km/h (0 Bft) 0,00 h 0,00 h 0,9 km/h (0 Bft)
13.09.2012 00:00 19,6 C 9,2 C 0,0 UV-I 0,0 C 49 % 89 % 0 % 1012,1 hPa 0,0 l/m 3,0 km/h (1 Bft) 0,00 h 0,00 h 4,2 km/h (1 Bft)
13.09.2012 01:00 19,5 C 9,2 C 0,0 UV-I 0,0 C 49 % 89 % 0 % 1011,7 hPa 0,0 l/m 0,7 km/h (0 Bft) 0,00 h 0,00 h 1,9 km/h (1 Bft)
13.09.2012 02:00 19,5 C 9,7 C 0,0 UV-I 0,0 C 49 % 89 % 0 % 1011,4 hPa 0,0 l/m 2,1 km/h (1 Bft) 0,00 h 0,00 h 2,9 km/h (1 Bft)
13.09.2012 03:00 19,4 C 9,9 C 0,0 UV-I 0,0 C 50 % 88 % 0 % 1011,5 hPa 0,5 l/m 0,9 km/h (0 Bft) 0,00 h 0,23 h 1,8 km/h (1 Bft)
13.09.2012 04:00 19,4 C 9,4 C 0,0 UV-I 0,0 C 52 % 91 % 0 % 1011,5 hPa 1,0 l/m 1,3 km/h (1 Bft) 0,00 h 0,30 h 2,6 km/h (1 Bft)
13.09.2012 05:00 19,4 C 9,3 C 0,0 UV-I 0,0 C 53 % 93 % 0 % 1011,9 hPa 1,6 l/m 0,5 km/h (0 Bft) 0,00 h 0,27 h 1,9 km/h (1 Bft)
13.09.2012 06:00 19,2 C 9,3 C 0,0 UV-I 0,0 C 54 % 94 % 0 % 1012,2 hPa 0,1 l/m 2,9 km/h (1 Bft) 0,00 h 0,00 h 5,3 km/h (1 Bft)
13.09.2012 07:00 19,2 C 9,5 C 0,0 UV-I 0,0 C 55 % 95 % 0 % 1012,8 hPa 0,0 l/m 2,3 km/h (1 Bft) 0,00 h 0,00 h 3,6 km/h (1 Bft)
13.09.2012 08:00 19,2 C 9,7 C 0,0 UV-I 0,0 C 55 % 96 % 0 % 1013,6 hPa 0,0 l/m 1,5 km/h (1 Bft) 0,00 h 0,00 h 2,2 km/h (1 Bft)
13.09.2012 09:00 19,4 C 10,4 C 0,0 UV-I 0,1 C 56 % 97 % 4 % 1013,9 hPa 0,1 l/m 1,6 km/h (1 Bft) 0,00 h 0,10 h 3,0 km/h (1 Bft)
13.09.2012 10:00 19,6 C 11,2 C 0,0 UV-I 1,2 C 57 % 97 % 33 % 1014,8 hPa 0,0 l/m 1,2 km/h (1 Bft) 0,00 h 0,00 h 2,0 km/h (1 Bft)
13.09.2012 11:00 19,8 C 12,1 C 0,4 UV-I 2,6 C 58 % 97 % 68 % 1015,3 hPa 0,0 l/m 0,3 km/h (0 Bft) 0,37 h 0,00 h 0,9 km/h (0 Bft)
13.09.2012 12:00 20,2 C 13,3 C 0,6 UV-I 3,5 C 57 % 95 % 93 % 1015,6 hPa 0,0 l/m 1,5 km/h (1 Bft) 0,80 h 0,00 h 2,7 km/h (1 Bft)
13.09.2012 13:00 20,4 C 13,6 C 0,5 UV-I 2,3 C 56 % 93 % 65 % 1016,1 hPa 0,0 l/m 3,5 km/h (1 Bft) 0,17 h 0,00 h 4,5 km/h (1 Bft)
13.09.2012 14:00 20,7 C 14,4 C 0,8 UV-I 2,7 C 56 % 90 % 77 % 1016,7 hPa 0,0 l/m 4,6 km/h (1 Bft) 0,53 h 0,00 h 6,2 km/h (2 Bft)
13.09.2012 15:00 21,1 C 14,9 C 0,8 UV-I 2,8 C 55 % 88 % 79 % 1016,6 hPa 0,0 l/m 3,2 km/h (1 Bft) 0,33 h 0,00 h 4,9 km/h (1 Bft)
13.09.2012 16:00 21,4 C 15,4 C 0,6 UV-I 2,4 C 55 % 84 % 68 % 1016,7 hPa 0,0 l/m 3,6 km/h (1 Bft) 0,20 h 0,00 h 5,2 km/h (1 Bft)
13.09.2012 17:00 21,6 C 15,8 C 0,4 UV-I 1,9 C 54 % 83 % 53 % 1016,9 hPa 0,0 l/m 2,1 km/h (1 Bft) 0,00 h 0,00 h 3,5 km/h (1 Bft)
13.09.2012 18:00 21,7 C 15,7 C 0,2 UV-I 1,0 C 54 % 82 % 28 % 1017,2 hPa 0,0 l/m 1,4 km/h (1 Bft) 0,00 h 0,00 h 3,0 km/h (1 Bft)
13.09.2012 19:00 21,4 C 15,3 C 0,0 UV-I 0,0 C 54 % 83 % 0 % 1017,4 hPa 0,0 l/m 0,1 km/h (0 Bft) 0,00 h 0,00 h 0,0 km/h (0 Bft)
13.09.2012 20:00 20,9 C 14,1 C 0,0 UV-I 0,0 C 56 % 85 % 0 % 1017,6 hPa 0,0 l/m 0,0 km/h (0 Bft) 0,00 h 0,00 h 0,0 km/h (0 Bft)
13.09.2012 21:00 20,4 C 12,9 C 0,0 UV-I 0,0 C 57 % 88 % 0 % 1017,9 hPa 0,0 l/m 0,0 km/h (0 Bft) 0,00 h 0,00 h 0,0 km/h (0 Bft)
13.09.2012 22:00 20,1 C 12,3 C 0,0 UV-I 0,0 C 58 % 91 % 0 % 1017,9 hPa 0,0 l/m 0,0 km/h (0 Bft) 0,00 h 0,00 h 0,0 km/h (0 Bft)
13.09.2012 23:00 19,9 C 11,9 C 0,0 UV-I 0,0 C 58 % 92 % 0 % 1017,6 hPa 0,0 l/m 0,0 km/h (0 Bft) 0,00 h 0,00 h 0,0 km/h (0 Bft)
14.09.2012 00:00 19,7 C 11,6 C 0,0 UV-I 0,0 C 58 % 93 % 0 % 1017,3 hPa 0,0 l/m 0,0 km/h (0 Bft) 0,00 h 0,00 h 0,4 km/h (0 Bft)
14.09.2012 01:00 19,6 C 11,6 C 0,0 UV-I 0,0 C 57 % 94 % 0 % 1016,9 hPa 0,0 l/m 0,2 km/h (0 Bft) 0,00 h 0,00 h 0,5 km/h (0 Bft)
14.09.2012 02:00 19,6 C 11,8 C 0,0 UV-I 0,0 C 57 % 94 % 0 % 1016,5 hPa 0,0 l/m 0,6 km/h (0 Bft) 0,00 h 0,00 h 1,0 km/h (0 Bft)
14.09.2012 03:00 19,4 C 11,4 C 0,0 UV-I 0,0 C 57 % 93 % 0 % 1016,0 hPa 0,0 l/m 0,6 km/h (0 Bft) 0,00 h 0,00 h 1,6 km/h (1 Bft)
14.09.2012 04:00 19,3 C 11,3 C 0,0 UV-I 0,0 C 57 % 94 % 0 % 1015,3 hPa 0,0 l/m 1,9 km/h (1 Bft) 0,00 h 0,00 h 3,9 km/h (1 Bft)
14.09.2012 05:00 19,2 C 11,1 C 0,0 UV-I 0,0 C 56 % 94 % 0 % 1014,8 hPa 0,0 l/m 2,5 km/h (1 Bft) 0,00 h 0,00 h 5,5 km/h (1 Bft)
14.09.2012 06:00 19,1 C 10,9 C 0,0 UV-I 0,0 C 56 % 94 % 0 % 1014,1 hPa 0,0 l/m 2,8 km/h (1 Bft) 0,00 h 0,00 h 5,0 km/h (1 Bft)
14.09.2012 07:00 18,9 C 10,7 C 0,0 UV-I 0,0 C 56 % 94 % 0 % 1013,6 hPa 0,0 l/m 2,9 km/h (1 Bft) 0,00 h 0,00 h 4,6 km/h (1 Bft)
14.09.2012 08:00 18,9 C 11,2 C 0,0 UV-I 0,9 C 55 % 91 % 23 % 1013,5 hPa 0,0 l/m 4,3 km/h (1 Bft) 0,20 h 0,00 h 8,0 km/h (2 Bft)
14.09.2012 09:00 19,0 C 12,5 C 0,2 UV-I 3,8 C 54 % 87 % 75 % 1013,1 hPa 0,0 l/m 6,2 km/h (2 Bft) 0,60 h 0,00 h 9,3 km/h (2 Bft)
14.09.2012 10:00 19,1 C 13,1 C 0,1 UV-I 0,9 C 55 % 86 % 24 % 1013,2 hPa 0,0 l/m 6,4 km/h (2 Bft) 0,00 h 0,00 h 10,2 km/h (2 Bft)
14.09.2012 11:00 19,2 C 13,5 C 0,1 UV-I 0,8 C 56 % 85 % 24 % 1012,2 hPa 0,0 l/m 7,4 km/h (2 Bft) 0,00 h 0,00 h 10,5 km/h (2 Bft)
14.09.2012 12:00 19,2 C 14,2 C 0,2 UV-I 0,9 C 57 % 84 % 27 % 1012,0 hPa 0,0 l/m 7,7 km/h (2 Bft) 0,00 h 0,00 h 11,3 km/h (2 Bft)
14.09.2012 13:00 19,2 C 14,5 C 0,5 UV-I 1,1 C 58 % 85 % 32 % 1011,5 hPa 0,0 l/m 8,2 km/h (2 Bft) 0,10 h 0,00 h 11,9 km/h (2 Bft)
14.09.2012 14:00 19,7 C 15,4 C 0,8 UV-I 2,2 C 58 % 84 % 61 % 1010,9 hPa 0,0 l/m 8,7 km/h (2 Bft) 0,33 h 0,00 h 12,0 km/h (2 Bft)
14.09.2012 15:00 19,7 C 15,1 C 0,0 UV-I 0,3 C 59 % 87 % 9 % 1010,5 hPa 0,0 l/m 7,6 km/h (2 Bft) 0,00 h 0,00 h 11,5 km/h (2 Bft)
14.09.2012 16:00 19,6 C 14,8 C 0,1 UV-I 0,1 C 62 % 90 % 2 % 1010,1 hPa 0,0 l/m 6,3 km/h (2 Bft) 0,00 h 0,13 h 8,6 km/h (2 Bft)
14.09.2012 17:00 19,7 C 14,9 C 0,0 UV-I 0,4 C 63 % 93 % 11 % 1010,0 hPa 0,0 l/m 4,8 km/h (1 Bft) 0,00 h 0,10 h 7,3 km/h (2 Bft)
14.09.2012 18:00 19,7 C 15,0 C 0,0 UV-I 0,1 C 65 % 94 % 3 % 1009,8 hPa 0,0 l/m 4,6 km/h (1 Bft) 0,00 h 0,00 h 8,1 km/h (2 Bft)
14.09.2012 19:00 19,7 C 15,2 C 0,0 UV-I 0,0 C 65 % 93 % 0 % 1010,0 hPa 0,5 l/m 3,5 km/h (1 Bft) 0,00 h 0,43 h 4,8 km/h (1 Bft)
14.09.2012 20:00 19,9 C 13,7 C 0,0 UV-I 0,0 C 63 % 92 % 0 % 1010,9 hPa 0,1 l/m 0,9 km/h (0 Bft) 0,00 h 0,20 h 1,2 km/h (1 Bft)
14.09.2012 21:00 19,7 C 13,2 C 0,0 UV-I 0,0 C 63 % 93 % 0 % 1011,6 hPa 0,0 l/m 0,1 km/h (0 Bft) 0,00 h 0,00 h 0,0 km/h (0 Bft)
14.09.2012 22:00 19,6 C 12,9 C 0,0 UV-I 0,0 C 63 % 94 % 0 % 1012,0 hPa 0,0 l/m 0,0 km/h (0 Bft) 0,00 h 0,00 h 0,1 km/h (0 Bft)
14.09.2012 23:00 19,5 C 12,4 C 0,0 UV-I 0,0 C 63 % 95 % 0 % 1012,6 hPa 0,0 l/m 0,2 km/h (0 Bft) 0,00 h 0,03 h 0,8 km/h (0 Bft)
15.09.2012 00:00 19,4 C 12,0 C 0,0 UV-I 0,0 C 62 % 95 % 0 % 1012,9 hPa 0,0 l/m 0,0 km/h (0 Bft) 0,00 h 0,00 h 0,0 km/h (0 Bft)
15.09.2012 01:00 19,2 C 12,2 C 0,0 UV-I 0,0 C 62 % 96 % 0 % 1013,4 hPa 0,1 l/m 0,7 km/h (0 Bft) 0,00 h 0,00 h 2,6 km/h (1 Bft)
15.09.2012 02:00 19,3 C 12,6 C 0,0 UV-I 0,0 C 62 % 96 % 0 % 1013,6 hPa 0,0 l/m 0,8 km/h (0 Bft) 0,00 h 0,00 h 2,0 km/h (1 Bft)
15.09.2012 03:00 19,2 C 12,5 C 0,0 UV-I 0,0 C 62 % 96 % 0 % 1013,9 hPa 0,0 l/m 0,4 km/h (0 Bft) 0,00 h 0,00 h 0,8 km/h (0 Bft)
15.09.2012 04:00 19,3 C 12,4 C 0,0 UV-I 0,0 C 62 % 96 % 0 % 1014,2 hPa 0,0 l/m 0,5 km/h (0 Bft) 0,00 h 0,00 h 1,2 km/h (1 Bft)
15.09.2012 05:00 19,3 C 12,4 C 0,0 UV-I 0,0 C 62 % 96 % 0 % 1014,2 hPa 0,0 l/m 0,3 km/h (0 Bft) 0,00 h 0,00 h 0,8 km/h (0 Bft)
15.09.2012 06:00 19,2 C 12,4 C 0,0 UV-I 0,0 C 62 % 96 % 0 % 1014,7 hPa 0,0 l/m 0,0 km/h (0 Bft) 0,00 h 0,00 h 0,0 km/h (0 Bft)
15.09.2012 07:00 19,3 C 12,4 C 0,0 UV-I 0,0 C 62 % 96 % 0 % 1015,3 hPa 0,0 l/m 0,1 km/h (0 Bft) 0,00 h 0,00 h 0,4 km/h (0 Bft)
15.09.2012 08:00 19,4 C 12,8 C 0,0 UV-I 0,2 C 62 % 96 % 5 % 1015,8 hPa 0,0 l/m 0,7 km/h (0 Bft) 0,00 h 0,00 h 1,4 km/h (1 Bft)
15.09.2012 09:00 19,6 C 13,8 C 0,1 UV-I 1,7 C 62 % 96 % 49 % 1016,5 hPa 0,0 l/m 0,6 km/h (0 Bft) 0,00 h 0,00 h 1,4 km/h (1 Bft)
15.09.2012 10:00 20,0 C 15,1 C 0,5 UV-I 2,5 C 62 % 92 % 72 % 1017,1 hPa 0,0 l/m 2,1 km/h (1 Bft) 0,20 h 0,00 h 3,8 km/h (1 Bft)
15.09.2012 11:00 20,5 C 16,5 C 1,7 UV-I 4,8 C 61 % 86 % 100 % 1017,2 hPa 0,0 l/m 4,1 km/h (1 Bft) 1,00 h 0,00 h 5,7 km/h (1 Bft)
15.09.2012 12:00 21,0 C 17,9 C 2,9 UV-I 6,1 C 58 % 77 % 100 % 1017,2 hPa 0,0 l/m 4,1 km/h (1 Bft) 1,00 h 0,00 h 7,5 km/h (2 Bft)
15.09.2012 13:00 21,4 C 18,0 C 1,4 UV-I 3,4 C 57 % 73 % 82 % 1017,2 hPa 0,0 l/m 4,9 km/h (1 Bft) 0,47 h 0,00 h 7,8 km/h (2 Bft)
15.09.2012 14:00 21,6 C 17,8 C 1,9 UV-I 3,4 C 56 % 73 % 78 % 1017,2 hPa 0,0 l/m 4,8 km/h (1 Bft) 0,53 h 0,00 h 7,9 km/h (2 Bft)
15.09.2012 15:00 22,8 C 19,3 C 2,5 UV-I 5,2 C 53 % 68 % 99 % 1017,0 hPa 0,0 l/m 3,9 km/h (1 Bft) 0,97 h 0,00 h 6,2 km/h (2 Bft)
15.09.2012 16:00 23,2 C 18,7 C 1,1 UV-I 2,6 C 51 % 67 % 74 % 1016,9 hPa 0,0 l/m 4,0 km/h (1 Bft) 0,37 h 0,00 h 5,1 km/h (1 Bft)
15.09.2012 17:00 22,9 C 18,4 C 0,7 UV-I 1,8 C 51 % 68 % 53 % 1016,5 hPa 0,0 l/m 2,7 km/h (1 Bft) 0,20 h 0,00 h 4,2 km/h (1 Bft)
15.09.2012 18:00 22,4 C 17,9 C 0,1 UV-I 0,7 C 51 % 70 % 19 % 1016,7 hPa 0,0 l/m 1,1 km/h (1 Bft) 0,00 h 0,00 h 1,8 km/h (1 Bft)
15.09.2012 19:00 21,9 C 16,4 C 0,0 UV-I 0,0 C 53 % 74 % 0 % 1017,0 hPa 0,0 l/m 0,0 km/h (0 Bft) 0,00 h 0,00 h 0,0 km/h (0 Bft)
15.09.2012 20:00 21,3 C 14,2 C 0,0 UV-I 0,0 C 55 % 81 % 0 % 1017,0 hPa 0,0 l/m 0,0 km/h (0 Bft) 0,00 h 0,00 h 0,0 km/h (0 Bft)
15.09.2012 21:00 20,8 C 12,7 C 0,0 UV-I 0,0 C 56 % 86 % 0 % 1017,2 hPa 0,0 l/m 0,0 km/h (0 Bft) 0,00 h 0,00 h 0,0 km/h (0 Bft)
15.09.2012 22:00 20,4 C 11,8 C 0,0 UV-I 0,0 C 56 % 89 % 0 % 1017,0 hPa 0,0 l/m 0,0 km/h (0 Bft) 0,00 h 0,00 h 0,0 km/h (0 Bft)
15.09.2012 23:00 20,0 C 11,3 C 0,0 UV-I 0,0 C 57 % 91 % 0 % 1017,1 hPa 0,0 l/m 0,0 km/h (0 Bft) 0,00 h 0,03 h 0,0 km/h (0 Bft)
16.09.2012 00:00 19,8 C 11,1 C 0,0 UV-I 0,0 C 57 % 93 % 0 % 1016,9 hPa 0,0 l/m 0,1 km/h (0 Bft) 0,00 h 0,00 h 0,0 km/h (0 Bft)
16.09.2012 01:00 19,6 C 10,8 C 0,0 UV-I 0,0 C 57 % 93 % 0 % 1016,8 hPa 0,0 l/m 0,0 km/h (0 Bft) 0,00 h 0,00 h 0,0 km/h (0 Bft)
16.09.2012 02:00 19,5 C 10,5 C 0,0 UV-I 0,0 C 57 % 94 % 0 % 1016,6 hPa 0,0 l/m 0,0 km/h (0 Bft) 0,00 h 0,00 h 0,1 km/h (0 Bft)
16.09.2012 03:00 19,2 C 10,1 C 0,0 UV-I 0,0 C 57 % 94 % 0 % 1016,5 hPa 0,0 l/m 0,0 km/h (0 Bft) 0,00 h 0,00 h 0,0 km/h (0 Bft)
16.09.2012 04:00 19,1 C 9,7 C 0,0 UV-I 0,0 C 57 % 94 % 0 % 1016,2 hPa 0,0 l/m 0,0 km/h (0 Bft) 0,00 h 0,03 h 0,0 km/h (0 Bft)
16.09.2012 05:00 18,9 C 9,3 C 0,0 UV-I 0,0 C 56 % 95 % 0 % 1015,9 hPa 0,0 l/m 0,2 km/h (0 Bft) 0,00 h 0,07 h 0,6 km/h (0 Bft)
16.09.2012 06:00 18,8 C 9,0 C 0,0 UV-I 0,0 C 56 % 95 % 0 % 1015,6 hPa 0,0 l/m 1,2 km/h (1 Bft) 0,00 h 0,00 h 2,1 km/h (1 Bft)
16.09.2012 07:00 18,6 C 8,8 C 0,0 UV-I 0,0 C 56 % 96 % 0 % 1015,6 hPa 0,0 l/m 1,4 km/h (1 Bft) 0,00 h 0,00 h 2,6 km/h (1 Bft)
16.09.2012 08:00 18,5 C 9,2 C 0,0 UV-I 1,3 C 56 % 97 % 30 % 1015,6 hPa 0,0 l/m 2,7 km/h (1 Bft) 0,27 h 0,00 h 3,7 km/h (1 Bft)
16.09.2012 09:00 18,7 C 11,7 C 0,3 UV-I 6,7 C 58 % 97 % 100 % 1015,6 hPa 0,0 l/m 4,3 km/h (1 Bft) 1,00 h 0,00 h 7,2 km/h (2 Bft)
16.09.2012 10:00 19,1 C 15,8 C 1,4 UV-I 8,5 C 59 % 92 % 100 % 1015,6 hPa 0,0 l/m 2,5 km/h (1 Bft) 1,00 h 0,00 h 6,1 km/h (2 Bft)
16.09.2012 11:00 19,6 C 18,6 C 4,2 UV-I 8,1 C 59 % 78 % 100 % 1015,1 hPa 0,0 l/m 3,8 km/h (1 Bft) 1,00 h 0,00 h 6,1 km/h (2 Bft)
16.09.2012 12:00 20,1 C 20,4 C 4,3 UV-I 7,4 C 59 % 68 % 100 % 1015,0 hPa 0,0 l/m 4,7 km/h (1 Bft) 1,00 h 0,00 h 7,9 km/h (2 Bft)
16.09.2012 13:00 21,3 C 21,5 C 4,5 UV-I 6,9 C 56 % 64 % 100 % 1014,5 hPa 0,0 l/m 4,6 km/h (1 Bft) 1,00 h 0,00 h 6,3 km/h (2 Bft)
16.09.2012 14:00 22,9 C 22,4 C 4,5 UV-I 6,5 C 54 % 62 % 100 % 1015,7 hPa 0,0 l/m 4,7 km/h (1 Bft) 1,00 h 0,00 h 8,3 km/h (2 Bft)
16.09.2012 15:00 24,5 C 23,1 C 4,5 UV-I 6,2 C 49 % 59 % 100 % 1013,3 hPa 0,0 l/m 4,3 km/h (1 Bft) 1,00 h 0,00 h 6,9 km/h (2 Bft)
16.09.2012 16:00 25,6 C 23,7 C 3,6 UV-I 5,9 C 46 % 57 % 100 % 1011,0 hPa 0,0 l/m 2,5 km/h (1 Bft) 1,00 h 0,00 h 5,4 km/h (1 Bft)
16.09.2012 17:00 25,2 C 23,5 C 1,4 UV-I 4,4 C 46 % 57 % 100 % 1011,0 hPa 0,0 l/m 2,5 km/h (1 Bft) 1,00 h 0,00 h 2,9 km/h (1 Bft)
16.09.2012 18:00 24,1 C 22,6 C 0,2 UV-I 0,9 C 48 % 60 % 27 % 1011,3 hPa 0,0 l/m 0,6 km/h (0 Bft) 0,27 h 0,00 h 0,8 km/h (0 Bft)
16.09.2012 19:00 23,3 C 20,5 C 0,0 UV-I 0,0 C 52 % 68 % 0 % 1011,3 hPa 0,0 l/m 0,0 km/h (0 Bft) 0,00 h 0,00 h 0,0 km/h (0 Bft)
16.09.2012 20:00 22,6 C 17,6 C 0,0 UV-I 0,0 C 55 % 77 % 0 % 1011,6 hPa 0,0 l/m 0,0 km/h (0 Bft) 0,00 h 0,00 h 0,0 km/h (0 Bft)
16.09.2012 21:00 22,2 C 15,7 C 0,0 UV-I 0,0 C 57 % 83 % 0 % 1011,8 hPa 0,0 l/m 0,0 km/h (0 Bft) 0,00 h 0,00 h 0,0 km/h (0 Bft)
16.09.2012 22:00 21,9 C 14,8 C 0,0 UV-I 0,0 C 58 % 88 % 0 % 1011,5 hPa 0,0 l/m 0,0 km/h (0 Bft) 0,00 h 0,00 h 0,0 km/h (0 Bft)
16.09.2012 23:00 21,6 C 14,2 C 0,0 UV-I 0,0 C 59 % 89 % 0 % 1011,3 hPa 0,0 l/m 0,0 km/h (0 Bft) 0,00 h 0,00 h 0,0 km/h (0 Bft)
Min-Datum _ 16.09.12 16.09.12 10.09.12 10.09.12 12.09.12 10.09.12 10.09.12 14.09.12 - 10.09.12 - - 10.09.12
_ Min-Zeit 08:12 07:26 00:00 00:00 17:44 16:04 00:00 17:48 - 00:00 - - 00:00
Minimum _ 18,5 C 8,7 C 0,0 UV-I 0,0 C 42 % 46 % 0 % 1009,4 hPa - 0,0 km/h (0 Bft) - - 0,0 km/h (0 Bft)
Max-Datum _ 10.09.12 10.09.12 16.09.12 16.09.12 14.09.12 12.09.12 10.09.12 13.09.12 11.09.12 12.09.12 10.09.12 11.09.12 12.09.12
_ Max-Zeit 16:24 17:20 12:00 10:38 18:20 04:12 09:32 20:48 14:38 14:22 09:26 04:28 14:30
Maximum _ 28,6 C 28,5 C 5,3 UV-I 9,1 C 65 % 97 % 100 % 1018,1 hPa 2,1 l/m 12,0 km/h
SW (2 Bft)
0,03 h 0,03 h 45,0 km/h
SW (6 Bft)
Durchschnitt _ 21,6 C 15,2 C 0,5 UV-I 1,2 C 55 % 84 % 24 % 1013,6 hPa #12,3 l/m 2,0 km/h (1 Bft) #29:02 h #6:32 h 3,3 km/h (1 Bft)
© 2012 W. Hausmann